Time;durP1;ratioP1;P1;durP2;ratioP2;P2;SDS_P1;SDS_P2;PMS_P1;PMS_P2;Temp;Humidity;BMP_temperature;BMP_pressure;BME280_temperature;BME280_humidity;BME280_pressure;Samples;Min_cycle;Max_cycle;Signal;HPM_P1;HPM_P2
2022/10/03 00:02:24;;;;;;;15.45;2.63;;;9.40;99.90;;;;;;5055426;28;20051;-53
2022/10/03 00:05:06;;;;;;;17.02;3.38;;;9.40;99.90;;;;;;5058542;28;20061;-52
2022/10/03 00:07:44;;;;;;;13.77;3.17;;;9.40;99.90;;;;;;5059715;28;20611;-53
2022/10/03 00:10:29;;;;;;;;;;;9.40;99.90;;;;;;5062146;28;20037;-50
2022/10/03 00:13:24;;;;;;;14.23;2.95;;;9.30;99.90;;;;;;5065006;28;20042;-54
2022/10/03 00:16:09;;;;;;;16.10;2.70;;;9.30;99.90;;;;;;5062465;28;20056;-52
2022/10/03 00:18:49;;;;;;;14.13;2.67;;;9.20;99.90;;;;;;5055639;28;20052;-49
2022/10/03 00:21:32;;;;;;;14.45;3.25;;;9.30;99.90;;;;;;5056820;28;20098;-48
2022/10/03 00:24:06;;;;;;;12.75;2.83;;;9.30;99.90;;;;;;5063561;28;20496;-50
2022/10/03 00:26:39;;;;;;;14.80;3.15;;;9.20;99.90;;;;;;5056343;28;20431;-52
2022/10/03 00:29:35;;;;;;;12.40;2.83;;;9.20;99.90;;;;;;5059046;28;20044;-49
2022/10/03 00:32:21;;;;;;;18.23;2.97;;;9.20;99.90;;;;;;5058913;28;20383;-49
2022/10/03 00:34:56;;;;;;;14.02;3.10;;;9.20;99.90;;;;;;5058730;28;20036;-49
2022/10/03 00:37:49;;;;;;;19.80;3.15;;;9.20;99.90;;;;;;5054781;28;20105;-50
2022/10/03 00:40:35;;;;;;;15.20;2.75;;;9.20;99.90;;;;;;5058332;28;20146;-53
2022/10/03 00:43:32;;;;;;;14.68;2.70;;;9.10;99.90;;;;;;5057362;28;20059;-48
2022/10/03 00:46:15;;;;;;;16.23;3.15;;;9.10;99.90;;;;;;5060540;28;20040;-49
2022/10/03 00:48:58;;;;;;;13.00;2.50;;;9.10;99.90;;;;;;5056289;28;20056;-48
2022/10/03 00:51:38;;;;;;;12.52;2.78;;;9.10;99.90;;;;;;5058058;28;20083;-52
2022/10/03 00:54:42;;;;;;;16.38;2.72;;;9.10;99.90;;;;;;5055422;28;20039;-52
2022/10/03 00:57:33;;;;;;;14.52;2.75;;;9.10;99.90;;;;;;5057540;28;20045;-49
2022/10/03 01:00:25;;;;;;;14.25;2.90;;;9.00;99.90;;;;;;5055184;28;20430;-49
2022/10/03 01:02:51;;;;;;;12.20;3.25;;;9.00;99.90;;;;;;5054703;28;20040;-49
2022/10/03 01:05:28;;;;;;;13.20;2.90;;;9.10;99.90;;;;;;5057589;28;20040;-54
2022/10/03 01:08:14;;;;;;;15.02;2.58;;;9.00;99.90;;;;;;5054611;28;20044;-49
2022/10/03 01:11:20;;;;;;;13.82;2.70;;;9.10;99.90;;;;;;5052959;28;20048;-51
2022/10/03 01:14:07;;;;;;;14.45;2.95;;;9.00;99.90;;;;;;5051112;28;21473;-48
2022/10/03 01:16:44;;;;;;;11.30;3.05;;;9.00;99.90;;;;;;5060330;28;20045;-47
2022/10/03 01:19:12;;;;;;;19.65;3.08;;;8.90;99.90;;;;;;5054164;28;20396;-49
2022/10/03 01:22:04;;;;;;;17.15;2.72;;;8.90;99.90;;;;;;5055609;28;20044;-48
2022/10/03 01:24:55;;;;;;;11.90;2.40;;;8.90;99.90;;;;;;5054672;28;20045;-48
2022/10/03 01:30:41;;;;;;;13.70;3.22;;;8.90;99.90;;;;;;5055981;28;20049;-49
2022/10/03 01:33:36;;;;;;;16.75;2.83;;;8.90;99.90;;;;;;5058126;28;20079;-49
2022/10/03 01:36:27;;;;;;;14.07;2.65;;;8.80;99.90;;;;;;5049691;28;20071;-51
2022/10/03 01:39:03;;;;;;;14.23;2.90;;;8.90;99.90;;;;;;5053605;28;20124;-48
2022/10/03 01:41:41;;;;;;;12.10;2.38;;;8.80;99.90;;;;;;5058659;28;20037;-51
2022/10/03 01:44:23;;;;;;;11.90;2.65;;;8.80;99.90;;;;;;5054720;28;20057;-51
2022/10/03 01:47:14;;;;;;;10.65;2.70;;;8.80;99.90;;;;;;5053724;28;20045;-50
2022/10/03 01:49:47;;;;;;;18.05;2.67;;;8.80;99.90;;;;;;5055220;28;20149;-50
2022/10/03 01:52:33;;;;;;;14.63;2.60;;;8.80;99.90;;;;;;5056697;28;20236;-52
2022/10/03 01:55:28;;;;;;;18.88;3.38;;;8.90;99.90;;;;;;5054372;28;20044;-50
2022/10/03 01:58:19;;;;;;;20.90;3.83;;;8.90;99.90;;;;;;5051952;28;20048;-49
2022/10/03 02:00:53;;;;;;;15.98;2.83;;;8.90;99.90;;;;;;5056241;28;20371;-48
2022/10/03 02:03:46;;;;;;;15.35;3.03;;;8.90;99.90;;;;;;5056448;28;20098;-50
2022/10/03 02:06:51;;;;;;;16.08;3.20;;;8.90;99.90;;;;;;5056673;28;20041;-49
2022/10/03 02:09:58;;;;;;;16.55;3.20;;;8.90;99.90;;;;;;5057200;28;20041;-51
2022/10/03 02:12:33;;;;;;;15.38;2.67;;;8.90;99.90;;;;;;5048984;28;20068;-49
2022/10/03 02:15:23;;;;;;;15.80;3.35;;;8.90;99.90;;;;;;5051925;28;20045;-49
2022/10/03 02:17:52;;;;;;;18.15;3.40;;;8.90;99.90;;;;;;5053828;28;20071;-50
2022/10/03 02:20:18;;;;;;;17.85;3.13;;;8.90;99.90;;;;;;5057417;28;20044;-52
2022/10/03 02:22:47;;;;;;;13.50;3.05;;;8.90;99.90;;;;;;5056798;28;20410;-49
2022/10/03 02:25:24;;;;;;;15.70;2.58;;;8.90;99.90;;;;;;5056119;28;20051;-48
2022/10/03 02:28:09;;;;;;;19.92;3.03;;;8.90;99.90;;;;;;5058777;28;20486;-48
2022/10/03 02:31:20;;;;;;;10.35;2.95;;;8.90;99.90;;;;;;5057702;28;20538;-50
2022/10/03 02:34:03;;;;;;;16.05;3.53;;;8.90;99.90;;;;;;5062053;28;20067;-50
2022/10/03 02:36:56;;;;;;;15.93;3.45;;;8.80;99.90;;;;;;5059470;28;20184;-48
2022/10/03 02:39:57;;;;;;;15.40;2.92;;;8.80;99.90;;;;;;5059341;28;20041;-49
2022/10/03 02:42:30;;;;;;;15.48;2.85;;;8.80;99.90;;;;;;5060452;28;20063;-49
2022/10/03 02:45:36;;;;;;;14.30;3.95;;;8.80;99.90;;;;;;5062853;28;20048;-51
2022/10/03 02:48:31;;;;;;;13.32;3.33;;;8.80;99.90;;;;;;5059362;28;20040;-49
2022/10/03 02:51:09;;;;;;;15.85;3.00;;;8.80;99.90;;;;;;5056165;28;20045;-49
2022/10/03 02:53:59;;;;;;;11.82;2.92;;;8.80;99.90;;;;;;5063883;28;20059;-49
2022/10/03 02:56:43;;;;;;;15.20;3.38;;;8.80;99.90;;;;;;5057834;28;20585;-53
2022/10/03 02:59:36;;;;;;;15.90;3.70;;;8.80;99.90;;;;;;5057649;28;20044;-53
2022/10/03 03:02:01;;;;;;;16.05;3.40;;;8.80;99.90;;;;;;5060228;28;20409;-51
2022/10/03 03:04:57;;;;;;;13.25;3.67;;;8.80;99.90;;;;;;5056876;28;20040;-50
2022/10/03 03:07:50;;;;;;;17.13;3.80;;;8.80;99.90;;;;;;5063062;28;20100;-52
2022/10/03 03:10:24;;;;;;;20.98;3.33;;;8.80;99.90;;;;;;5064323;28;20048;-51
2022/10/03 03:13:47;;;;;;;18.55;4.20;;;8.70;99.90;;;;;;5057930;28;20534;-50
2022/10/03 03:16:35;;;;;;;12.25;3.67;;;8.70;99.90;;;;;;5067060;28;20044;-51
2022/10/03 03:19:29;;;;;;;18.40;4.18;;;8.70;99.90;;;;;;5072759;28;20487;-52
2022/10/03 03:22:15;;;;;;;13.10;3.50;;;8.80;99.90;;;;;;5063344;28;20067;-49
2022/10/03 03:24:59;;;;;;;15.23;3.60;;;8.80;99.90;;;;;;5066946;28;20040;-53
2022/10/03 03:27:43;;;;;;;15.75;3.60;;;8.70;99.90;;;;;;5068510;28;20052;-52
2022/10/03 03:30:21;;;;;;;12.98;3.25;;;8.70;99.90;;;;;;5060968;28;20044;-50
2022/10/03 03:33:10;;;;;;;17.58;4.20;;;8.70;99.90;;;;;;5066010;28;20513;-51
2022/10/03 03:35:59;;;;;;;17.55;4.40;;;8.70;99.90;;;;;;5065109;28;20052;-51
2022/10/03 03:38:43;;;;;;;11.27;3.47;;;8.70;99.90;;;;;;5059839;28;20128;-51
2022/10/03 03:41:39;;;;;;;12.98;3.95;;;8.70;99.90;;;;;;5069041;28;20583;-49
2022/10/03 03:44:10;;;;;;;17.00;3.63;;;8.80;99.90;;;;;;5065881;28;20063;-51
2022/10/03 03:46:51;;;;;;;15.90;3.50;;;8.70;99.90;;;;;;5062961;28;20406;-52
2022/10/03 03:49:35;;;;;;;13.68;3.92;;;8.70;99.90;;;;;;5061605;28;20106;-52
2022/10/03 03:52:12;;;;;;;18.58;4.30;;;8.70;99.90;;;;;;5050769;28;20047;-49
2022/10/03 03:55:45;;;;;;;18.25;4.70;;;8.70;99.90;;;;;;5056781;28;20040;-49
2022/10/03 03:58:32;;;;;;;21.00;4.18;;;8.70;99.90;;;;;;4981320;28;20055;-51
2022/10/03 04:01:20;;;;;;;12.50;3.72;;;8.70;99.90;;;;;;4979641;28;20050;-50
2022/10/03 04:04:04;;;;;;;15.40;4.38;;;8.70;99.90;;;;;;4980648;28;20059;-51
2022/10/03 04:06:56;;;;;;;15.70;3.50;;;8.70;99.90;;;;;;4979646;28;20457;-52
2022/10/03 04:09:53;;;;;;;12.20;3.83;;;8.60;99.90;;;;;;4979546;28;20050;-49
2022/10/03 04:12:28;;;;;;;20.30;4.03;;;8.60;99.90;;;;;;4981184;28;20641;-50
2022/10/03 04:15:07;;;;;;;13.38;4.18;;;8.60;99.90;;;;;;4978879;28;20501;-51
2022/10/03 04:20:47;;;;;;;16.42;5.03;;;8.60;99.90;;;;;;4978796;28;20129;-50
2022/10/03 04:24:00;;;;;;;16.10;4.63;;;8.60;99.90;;;;;;4977635;28;20058;-47
2022/10/03 04:26:47;;;;;;;16.83;4.47;;;8.60;99.90;;;;;;4977499;28;20137;-51
2022/10/03 04:29:37;;;;;;;14.77;4.57;;;8.60;99.90;;;;;;5024912;28;20146;-54
2022/10/03 04:32:08;;;;;;;21.33;4.22;;;8.60;99.90;;;;;;5059577;28;20041;-51
2022/10/03 04:34:48;;;;;;;14.57;4.30;;;8.60;99.90;;;;;;5059133;28;20052;-50
2022/10/03 04:37:23;;;;;;;12.48;4.15;;;8.60;99.90;;;;;;5056232;28;20040;-52
2022/10/03 04:40:27;;;;;;;15.48;4.57;;;8.60;99.90;;;;;;5056188;28;20059;-48
2022/10/03 04:43:08;;;;;;;16.92;4.55;;;8.60;99.90;;;;;;5055285;28;20442;-48
2022/10/03 04:45:38;;;;;;;13.77;4.22;;;8.60;99.90;;;;;;5058535;28;20117;-51
2022/10/03 04:48:15;;;;;;;14.00;4.57;;;8.60;99.90;;;;;;5057869;28;20048;-49
2022/10/03 04:50:59;;;;;;;13.00;4.80;;;8.60;99.90;;;;;;5058625;28;20098;-48
2022/10/03 04:53:48;;;;;;;13.88;4.72;;;8.50;99.90;;;;;;5057618;28;20048;-49
2022/10/03 04:56:37;;;;;;;12.18;4.47;;;8.50;99.90;;;;;;5057615;28;20045;-52
2022/10/03 04:59:35;;;;;;;16.00;4.43;;;8.40;99.90;;;;;;5058443;28;20057;-51
2022/10/03 05:02:05;;;;;;;;;;;8.40;99.90;;;;;;5060402;28;20045;-48
2022/10/03 05:04:42;;;;;;;13.93;3.90;;;8.40;99.90;;;;;;5055437;28;19975;-49
2022/10/03 05:07:19;;;;;;;15.27;5.20;;;8.50;99.90;;;;;;5058865;28;20562;-50
2022/10/03 05:09:57;;;;;;;18.38;5.18;;;8.50;99.90;;;;;;5058010;28;20414;-53
2022/10/03 05:12:48;;;;;;;16.23;4.78;;;8.40;99.90;;;;;;5058708;28;20186;-52
2022/10/03 05:15:25;;;;;;;14.20;4.50;;;8.40;99.90;;;;;;5057597;28;20398;-48
2022/10/03 05:18:16;;;;;;;12.07;4.55;;;8.30;99.90;;;;;;5057478;28;20048;-51
2022/10/03 05:20:57;;;;;;;16.27;4.70;;;8.30;99.90;;;;;;5058042;28;20048;-51
2022/10/03 05:23:23;;;;;;;12.65;4.20;;;8.30;99.90;;;;;;5059465;28;20041;-51
2022/10/03 05:26:27;;;;;;;15.23;5.35;;;8.30;99.90;;;;;;5057420;28;20383;-48
2022/10/03 05:29:04;;;;;;;15.95;4.45;;;8.30;99.90;;;;;;5056222;28;20104;-51
2022/10/03 05:31:37;;;;;;;12.20;4.72;;;8.20;99.90;;;;;;5039466;28;20032;-50
2022/10/03 05:34:08;;;;;;;14.25;5.15;;;8.20;99.90;;;;;;5055455;28;20182;-51
2022/10/03 05:36:53;;;;;;;19.98;5.40;;;8.30;99.90;;;;;;5056120;28;20032;-49
2022/10/03 05:39:44;;;;;;;9.88;4.43;;;8.30;99.90;;;;;;5056581;28;20059;-49
2022/10/03 05:42:22;;;;;;;18.63;4.82;;;8.30;99.90;;;;;;5054820;28;20217;-51
2022/10/03 05:45:01;;;;;;;;;;;8.30;99.90;;;;;;5038020;28;22725;-52
2022/10/03 05:47:48;;;;;;;17.33;5.25;;;8.30;99.90;;;;;;5043930;28;19920;-51
2022/10/03 05:50:51;;;;;;;21.85;5.07;;;8.30;99.90;;;;;;5055746;28;20052;-50
2022/10/03 05:53:36;;;;;;;14.73;4.90;;;8.40;99.90;;;;;;5055403;28;20049;-52
2022/10/03 05:56:17;;;;;;;12.32;5.03;;;8.40;99.90;;;;;;5057063;28;20047;-48
2022/10/03 05:59:27;;;;;;;21.67;5.20;;;8.40;99.90;;;;;;5037068;28;20139;-54
2022/10/03 06:02:23;;;;;;;13.15;4.65;;;8.50;99.90;;;;;;5059657;28;20573;-47
2022/10/03 06:05:19;;;;;;;19.75;5.55;;;8.50;99.90;;;;;;5059433;28;20055;-50
2022/10/03 06:07:51;;;;;;;15.43;4.72;;;8.60;99.90;;;;;;5054179;28;20056;-51
2022/10/03 06:10:24;;;;;;;10.68;5.35;;;8.60;99.90;;;;;;5058452;28;20435;-50
2022/10/03 06:13:36;;;;;;;17.58;5.32;;;8.70;99.90;;;;;;5060733;28;20402;-50
2022/10/03 06:16:38;;;;;;;18.95;5.40;;;8.70;99.90;;;;;;5033107;28;20049;-53
2022/10/03 06:19:25;;;;;;;16.17;5.15;;;8.70;99.90;;;;;;5041349;28;20176;-52
2022/10/03 06:22:24;;;;;;;19.15;5.10;;;8.80;99.90;;;;;;5042071;28;20053;-50
2022/10/03 06:25:17;;;;;;;13.23;4.82;;;8.80;99.90;;;;;;5036704;28;20180;-51
2022/10/03 06:28:17;;;;;;;12.90;4.63;;;8.90;99.90;;;;;;5039046;28;20055;-49
2022/10/03 06:30:52;;;;;;;13.95;5.32;;;9.00;99.90;;;;;;5037816;28;20128;-49
2022/10/03 06:33:39;;;;;;;16.23;5.00;;;9.00;99.90;;;;;;5039593;28;20049;-49
2022/10/03 06:36:29;;;;;;;11.07;4.40;;;9.20;99.90;;;;;;5036934;28;20396;-50
2022/10/03 06:39:33;;;;;;;13.20;4.88;;;9.80;99.90;;;;;;5034972;28;20098;-53
2022/10/03 06:42:11;;;;;;;14.23;4.90;;;11.00;99.90;;;;;;5038185;28;20049;-56
2022/10/03 06:45:09;;;;;;;11.93;4.47;;;11.40;99.90;;;;;;5035712;28;20490;-50
2022/10/03 06:47:59;;;;;;;10.10;4.20;;;12.20;99.90;;;;;;5059169;28;20044;-53
2022/10/03 06:50:46;;;;;;;9.35;3.60;;;12.30;99.90;;;;;;5060182;28;20040;-52
2022/10/03 06:53:20;;;;;;;13.30;3.63;;;12.00;99.90;;;;;;5059507;28;20060;-55
2022/10/03 06:56:07;;;;;;;7.15;3.30;;;11.70;99.90;;;;;;5061517;28;20128;-51
2022/10/03 06:59:18;;;;;;;7.50;3.15;;;11.60;99.90;;;;;;5060705;28;20053;-49
2022/10/03 07:02:15;;;;;;;8.48;3.30;;;11.40;99.90;;;;;;5060262;28;20052;-48
2022/10/03 07:04:43;;;;;;;11.27;3.38;;;11.30;99.90;;;;;;5061754;28;20040;-55
2022/10/03 07:07:18;;;;;;;6.80;2.63;;;11.20;99.90;;;;;;5058361;28;20041;-52
2022/10/03 07:10:08;;;;;;;9.13;2.90;;;11.20;99.90;;;;;;5054905;28;20044;-52
2022/10/03 07:12:58;;;;;;;7.07;2.70;;;11.20;99.90;;;;;;5058136;28;20041;-51
2022/10/03 07:15:52;;;;;;;11.60;2.88;;;11.30;99.90;;;;;;5059468;28;20097;-52
2022/10/03 07:19:00;;;;;;;8.60;2.58;;;11.40;99.90;;;;;;5055756;28;20106;-52
2022/10/03 07:21:59;;;;;;;10.55;2.83;;;11.40;99.90;;;;;;5058865;28;20756;-51
2022/10/03 07:25:14;;;;;;;10.55;2.72;;;11.50;99.90;;;;;;5058208;28;20036;-52
2022/10/03 07:28:24;;;;;;;8.07;2.72;;;11.60;99.90;;;;;;5060016;28;20041;-52
2022/10/03 07:31:11;;;;;;;9.30;2.97;;;11.70;99.90;;;;;;5040793;28;20438;-53
2022/10/03 07:34:06;;;;;;;9.20;2.70;;;11.90;99.90;;;;;;5047771;28;20040;-54
2022/10/03 07:40:09;;;;;;;8.48;2.85;;;12.00;99.90;;;;;;5045253;28;20145;-54
2022/10/03 07:43:02;;;;;;;11.82;2.95;;;12.20;99.90;;;;;;5046903;28;20687;-52
2022/10/03 07:45:40;;;;;;;11.98;2.58;;;12.20;99.90;;;;;;5040491;28;20040;-52
2022/10/03 07:48:08;;;;;;;9.90;2.58;;;12.40;99.90;;;;;;5046709;28;20069;-51
2022/10/03 07:51:07;;;;;;;9.68;2.30;;;12.50;99.90;;;;;;5045818;28;20472;-54
2022/10/03 07:53:50;;;;;;;7.30;2.40;;;12.60;99.90;;;;;;5040628;28;20627;-53
2022/10/03 07:56:39;;;;;;;6.82;2.28;;;;;;;;;;5028297;28;20139;-53
2022/10/03 07:59:07;;;;;;;8.70;2.42;;;12.80;99.90;;;;;;5036425;28;20048;-53
2022/10/03 08:01:45;;;;;;;10.18;2.60;;;12.90;99.90;;;;;;5056135;28;20057;-53
2022/10/03 08:04:28;;;;;;;9.10;2.83;;;13.00;99.90;;;;;;5064368;28;20045;-53
2022/10/03 08:07:25;;;;;;;7.70;2.13;;;13.10;99.90;;;;;;5062718;28;20062;-56
2022/10/03 08:10:17;;;;;;;5.93;2.03;;;13.30;99.90;;;;;;5066587;28;20149;-55
2022/10/03 08:13:08;;;;;;;7.43;2.25;;;13.40;99.90;;;;;;5067334;28;20116;-56
2022/10/03 08:15:57;;;;;;;8.07;2.08;;;13.60;99.90;;;;;;5064508;28;20040;-51
2022/10/03 08:18:31;;;;;;;7.03;2.05;;;13.70;99.90;;;;;;5064533;28;20037;-53
2022/10/03 08:20:58;;;;;;;8.52;2.40;;;13.90;99.90;;;;;;5061338;28;20093;-56
2022/10/03 08:23:54;;;;;;;6.78;1.90;;;13.90;99.90;;;;;;5060366;28;20040;-53
2022/10/03 08:26:32;;;;;;;7.63;1.90;;;14.00;99.90;;;;;;5061629;28;20041;-54
2022/10/03 08:29:12;;;;;;;;;;;14.10;99.90;;;;;;5057016;28;20041;-54
2022/10/03 08:31:51;;;;;;;10.90;2.30;;;14.20;99.90;;;;;;5063144;28;19927;-55
2022/10/03 08:34:25;;;;;;;7.07;2.03;;;14.30;99.90;;;;;;5061799;28;20052;-55
2022/10/03 08:37:06;;;;;;;8.38;1.95;;;14.40;99.90;;;;;;5058387;28;20052;-52
2022/10/03 08:39:43;;;;;;;8.25;2.10;;;14.50;99.90;;;;;;5059025;28;20081;-54
2022/10/03 08:42:43;;;;;;;12.68;2.22;;;14.50;99.90;;;;;;5058167;28;20048;-54
2022/10/03 08:45:41;;;;;;;6.78;1.88;;;14.70;99.90;;;;;;5058224;28;20174;-55
2022/10/03 08:48:23;;;;;;;8.10;1.95;;;14.80;99.90;;;;;;5054254;28;20451;-54
2022/10/03 08:51:26;;;;;;;8.73;2.03;;;14.80;99.90;;;;;;5061229;28;20082;-54
2022/10/03 08:54:23;;;;;;;8.95;2.33;;;14.90;99.90;;;;;;5052775;28;20171;-55
2022/10/03 08:57:05;;;;;;;8.32;1.92;;;15.10;99.90;;;;;;5058484;28;20135;-55
2022/10/03 08:59:52;;;;;;;8.93;1.92;;;15.10;99.90;;;;;;5059061;28;20127;-56
2022/10/03 09:02:55;;;;;;;6.25;1.48;;;15.20;99.90;;;;;;5058275;28;20493;-55
2022/10/03 09:05:55;;;;;;;5.45;1.70;;;15.20;99.90;;;;;;5057554;28;20151;-53
2022/10/03 09:08:44;;;;;;;6.78;1.55;;;15.30;99.90;;;;;;5058149;28;20044;-54
2022/10/03 09:11:33;;;;;;;8.57;1.77;;;15.40;99.90;;;;;;5060587;28;20157;-56
2022/10/03 09:14:20;;;;;;;9.70;2.03;;;15.40;99.90;;;;;;5058921;28;20040;-56
2022/10/03 09:17:26;;;;;;;8.10;1.77;;;15.50;99.90;;;;;;5059447;28;20036;-55
2022/10/03 09:19:55;;;;;;;8.20;2.33;;;15.70;99.90;;;;;;5057722;28;20048;-55
2022/10/03 09:22:30;;;;;;;11.23;2.15;;;15.80;99.90;;;;;;5062024;28;20045;-55
2022/10/03 09:25:09;;;;;;;19.17;2.95;;;16.00;99.90;;;;;;5056517;28;20098;-55
2022/10/03 09:28:12;;;;;;;20.58;3.22;;;16.10;99.90;;;;;;5059860;28;20056;-55
2022/10/03 09:30:57;;;;;;;9.60;1.90;;;16.20;99.90;;;;;;5051037;28;20072;-55
2022/10/03 09:34:03;;;;;;;8.07;1.83;;;16.20;99.90;;;;;;5058833;28;20415;-53
2022/10/03 09:36:58;;;;;;;8.45;2.38;;;16.10;99.90;;;;;;5033615;28;20087;-56
2022/10/03 09:39:34;;;;;;;5.93;1.77;;;16.20;99.90;;;;;;5035424;28;20087;-55
2022/10/03 09:42:26;;;;;;;7.33;1.83;;;16.30;99.90;;;;;;5035527;28;20094;-55
2022/10/03 09:44:57;;;;;;;9.55;2.20;;;16.30;99.90;;;;;;5039461;28;20820;-54
2022/10/03 09:48:00;;;;;;;8.02;1.30;;;16.40;99.90;;;;;;5041089;28;20454;-55
2022/10/03 09:50:41;;;;;;;5.47;1.52;;;16.40;99.90;;;;;;5041613;28;20503;-55
2022/10/03 09:53:43;;;;;;;9.88;2.08;;;16.40;99.90;;;;;;5039378;28;20053;-54
2022/10/03 09:56:29;;;;;;;6.60;1.80;;;16.40;99.90;;;;;;5038812;28;20544;-54
2022/10/03 09:59:32;;;;;;;7.80;1.80;;;16.70;99.90;;;;;;5022779;28;20519;-55
2022/10/03 10:02:37;;;;;;;10.40;1.83;;;16.80;99.90;;;;;;4964071;28;20092;-55
2022/10/03 10:05:30;;;;;;;9.02;1.70;;;16.80;99.90;;;;;;4963137;28;20082;-56
2022/10/03 10:08:13;;;;;;;6.53;1.40;;;16.90;99.90;;;;;;4988384;28;20081;-53
2022/10/03 10:10:53;;;;;;;7.72;1.38;;;16.90;99.90;;;;;;4993856;28;20648;-55
2022/10/03 10:13:36;;;;;;;8.65;1.58;;;17.00;99.90;;;;;;4990135;28;20084;-55
2022/10/03 10:16:34;;;;;;;10.75;1.70;;;16.90;99.90;;;;;;4992752;28;20089;-54
2022/10/03 10:19:45;;;;;;;9.98;1.60;;;16.90;99.90;;;;;;4993914;28;20145;-55
2022/10/03 10:22:16;;;;;;;6.40;1.67;;;17.10;99.90;;;;;;4997232;28;20108;-54
2022/10/03 10:25:03;;;;;;;7.38;1.27;;;17.20;99.90;;;;;;4997078;28;20042;-55
2022/10/03 10:27:29;;;;;;;7.78;1.50;;;17.20;99.90;;;;;;4994215;28;20535;-55
2022/10/03 10:30:30;;;;;;;5.97;1.20;;;17.20;99.90;;;;;;4998208;28;20149;-55
2022/10/03 10:33:01;;;;;;;7.72;1.63;;;17.30;99.90;;;;;;4991452;28;20161;-55
2022/10/03 10:36:05;;;;;;;6.55;1.60;;;17.40;99.90;;;;;;5011893;28;20061;-55
2022/10/03 10:39:08;;;;;;;7.50;1.60;;;17.50;99.90;;;;;;5054954;28;20064;-54
2022/10/03 10:41:49;;;;;;;7.32;1.80;;;17.70;99.90;;;;;;5055832;28;20418;-55
2022/10/03 10:44:39;;;;;;;6.25;1.13;;;17.70;99.90;;;;;;5050987;28;20052;-54
2022/10/03 10:47:47;;;;;;;5.80;1.25;;;17.60;99.90;;;;;;5052919;28;20049;-54
2022/10/03 10:50:22;;;;;;;6.13;1.40;;;17.70;99.90;;;;;;5057515;28;20298;-54
2022/10/03 10:52:59;;;;;;;7.40;1.33;;;17.80;99.90;;;;;;5060121;28;20093;-55
2022/10/03 10:55:47;;;;;;;9.18;1.20;;;17.80;99.90;;;;;;5060014;28;20045;-54
2022/10/03 10:58:52;;;;;;;4.68;1.65;;;17.90;99.90;;;;;;5061087;28;20403;-56
2022/10/03 11:01:48;;;;;;;6.20;1.33;;;17.80;99.90;;;;;;5061722;28;20040;-54
2022/10/03 11:04:38;;;;;;;5.55;1.25;;;18.10;99.90;;;;;;5064122;28;20043;-55
2022/10/03 11:07:23;;;;;;;7.03;1.52;;;18.10;99.90;;;;;;5058533;28;20052;-54
2022/10/03 11:10:27;;;;;;;6.35;1.35;;;18.30;99.90;;;;;;5055180;28;20048;-56
2022/10/03 11:13:26;;;;;;;7.25;1.30;;;18.40;99.90;;;;;;5059076;28;20505;-54
2022/10/03 11:15:58;;;;;;;6.43;1.85;;;18.60;99.90;;;;;;5065253;28;20036;-56
2022/10/03 11:18:23;;;;;;;6.03;1.13;;;18.50;99.90;;;;;;5062721;28;20055;-56
2022/10/03 11:21:04;;;;;;;5.35;1.25;;;18.50;99.90;;;;;;5071542;28;20048;-55
2022/10/03 11:23:57;;;;;;;4.80;1.40;;;18.50;99.90;;;;;;5074176;28;20420;-55
2022/10/03 11:26:45;;;;;;;7.07;1.50;;;18.30;99.90;;;;;;5071222;28;20041;-55
2022/10/03 11:29:32;;;;;;;6.53;1.48;;;18.10;99.90;;;;;;5066430;28;20452;-55
2022/10/03 11:32:29;;;;;;;4.95;1.58;;;18.00;99.90;;;;;;5065425;28;20136;-55
2022/10/03 11:35:20;;;;;;;4.63;1.13;;;17.80;99.90;;;;;;5070924;28;20051;-53
2022/10/03 11:38:00;;;;;;;7.25;1.70;;;17.90;99.90;;;;;;5063681;28;20044;-55
2022/10/03 11:40:41;;;;;;;6.45;1.35;;;18.20;99.90;;;;;;5072501;28;20047;-55
2022/10/03 11:43:39;;;;;;;3.45;1.25;;;18.30;99.90;;;;;;5074214;28;20074;-54
2022/10/03 11:46:29;;;;;;;5.30;1.35;;;18.40;99.90;;;;;;5073262;28;20040;-55
2022/10/03 11:49:16;;;;;;;9.60;1.60;;;18.50;99.90;;;;;;5071610;28;20098;-55
2022/10/03 11:51:49;;;;;;;5.17;1.33;;;18.40;99.90;;;;;;5071185;28;20513;-55
2022/10/03 11:54:38;;;;;;;3.78;1.35;;;18.30;99.90;;;;;;5073853;28;20401;-55
2022/10/03 11:57:30;;;;;;;5.80;1.20;;;18.40;99.90;;;;;;5068912;28;20048;-56
2022/10/03 12:00:13;;;;;;;6.07;0.90;;;18.40;99.90;;;;;;5057461;28;20048;-56
2022/10/03 12:03:07;;;;;;;8.07;1.80;;;18.50;99.90;;;;;;5059798;28;20033;-56
2022/10/03 12:08:56;;;;;;;4.95;1.15;;;18.50;99.90;;;;;;5065164;28;20044;-55
2022/10/03 12:11:22;;;;;;;7.53;1.20;;;18.60;99.90;;;;;;5068052;28;20041;-55
2022/10/03 12:14:03;;;;;;;3.75;1.00;;;18.70;99.90;;;;;;5069411;28;20051;-56
2022/10/03 12:16:40;;;;;;;5.80;1.20;;;18.70;99.90;;;;;;5060635;28;20479;-55
2022/10/03 12:19:30;;;;;;;5.68;1.70;;;18.80;99.90;;;;;;5059529;28;20047;-56
2022/10/03 12:22:25;;;;;;;6.78;1.27;;;18.80;99.90;;;;;;5058954;28;20045;-57
2022/10/03 12:24:56;;;;;;;6.82;1.00;;;18.90;99.90;;;;;;5061203;28;20040;-57
2022/10/03 12:27:29;;;;;;;5.72;1.35;;;18.80;99.90;;;;;;5063554;28;20525;-55
2022/10/03 12:29:57;;;;;;;5.55;1.25;;;18.70;99.90;;;;;;5054671;28;20052;-55
2022/10/03 12:32:26;;;;;;;6.68;1.38;;;18.60;99.90;;;;;;5062737;28;20123;-55
2022/10/03 12:35:07;;;;;;;4.70;1.20;;;18.70;99.90;;;;;;5056160;28;20060;-57
2022/10/03 12:38:10;;;;;;;4.82;1.42;;;18.80;99.90;;;;;;5060385;28;20081;-56
2022/10/03 12:40:48;;;;;;;4.50;1.35;;;18.50;99.90;;;;;;5057910;28;20045;-54
2022/10/03 12:43:36;;;;;;;6.03;1.05;;;18.70;99.90;;;;;;5078258;28;20375;-56
2022/10/03 12:46:12;;;;;;;5.30;1.13;;;18.90;99.90;;;;;;5062833;28;20127;-55
2022/10/03 12:48:54;;;;;;;7.67;1.40;;;18.80;99.90;;;;;;5061050;28;20145;-56
2022/10/03 12:51:25;;;;;;;4.68;1.42;;;18.90;99.90;;;;;;5062924;28;20052;-54
2022/10/03 12:53:54;;;;;;;3.70;1.15;;;18.80;99.90;;;;;;5061083;28;20296;-56
2022/10/03 12:56:40;;;;;;;5.97;1.15;;;18.60;99.90;;;;;;5063305;28;20041;-55
2022/10/03 12:59:26;;;;;;;3.55;1.15;;;18.50;99.90;;;;;;5062718;28;20057;-56
2022/10/03 13:02:07;;;;;;;5.72;1.02;;;18.50;99.90;;;;;;5067380;28;20048;-56
2022/10/03 13:04:57;;;;;;;7.00;1.45;;;18.40;99.90;;;;;;5064208;28;20052;-54
2022/10/03 13:07:27;;;;;;;4.10;1.33;;;;;;;;;;5064048;28;20052;-55
2022/10/03 13:10:05;;;;;;;5.30;1.55;;;18.30;99.90;;;;;;5067511;28;20119;-57
2022/10/03 13:12:39;;;;;;;3.72;1.00;;;18.20;99.90;;;;;;5061008;28;20041;-53
2022/10/03 13:15:46;;;;;;;9.45;1.65;;;18.20;99.90;;;;;;5071115;28;20133;-55
2022/10/03 13:18:35;;;;;;;3.88;1.20;;;18.20;99.90;;;;;;5060668;28;20441;-55
2022/10/03 13:21:09;;;;;;;9.40;1.40;;;18.20;99.90;;;;;;5070118;28;20044;-55
2022/10/03 13:24:07;;;;;;;5.70;1.38;;;18.30;99.90;;;;;;5065779;28;20106;-56
2022/10/03 13:26:51;;;;;;;6.15;1.50;;;18.40;99.90;;;;;;5063324;28;20040;-54
2022/10/03 13:29:37;;;;;;;5.18;1.45;;;18.40;99.90;;;;;;5064319;28;20051;-54
2022/10/03 13:32:27;;;;;;;4.07;1.10;;;18.50;99.90;;;;;;5072135;28;20083;-55
2022/10/03 13:38:15;;;;;;;3.92;1.20;;;18.70;99.90;;;;;;5070946;28;20124;-55
2022/10/03 13:40:56;;;;;;;5.10;1.40;;;18.80;99.90;;;;;;5071364;28;20074;-55
2022/10/03 13:43:34;;;;;;;5.03;1.17;;;18.80;99.90;;;;;;5072620;28;20119;-54
2022/10/03 13:46:07;;;;;;;6.03;1.20;;;18.90;99.90;;;;;;5070643;28;20511;-55
2022/10/03 13:48:33;;;;;;;9.60;1.67;;;18.90;99.90;;;;;;5072224;28;20127;-54
2022/10/03 13:51:04;;;;;;;6.63;1.27;;;18.90;99.90;;;;;;5072110;28;20044;-54
2022/10/03 13:54:02;;;;;;;6.22;1.77;;;18.90;99.90;;;;;;5068570;28;20040;-55
2022/10/03 13:56:47;;;;;;;2.63;1.10;;;19.00;99.90;;;;;;5059115;28;20115;-52
2022/10/03 13:59:40;;;;;;;5.57;1.05;;;19.00;99.90;;;;;;5070105;28;20047;-56
2022/10/03 14:02:16;;;;;;;4.30;1.13;;;19.10;99.90;;;;;;5066679;28;20125;-56
2022/10/03 14:04:45;;;;;;;4.68;1.25;;;19.10;99.90;;;;;;5063555;28;20059;-55
2022/10/03 14:07:37;;;;;;;6.50;1.48;;;19.10;99.90;;;;;;5071713;28;20410;-56
2022/10/03 14:10:27;;;;;;;4.15;1.10;;;18.90;99.90;;;;;;5061762;28;20076;-55
2022/10/03 14:13:11;;;;;;;7.65;1.23;;;19.00;99.90;;;;;;5055425;28;20048;-56
2022/10/03 14:16:19;;;;;;;4.28;1.10;;;19.00;99.90;;;;;;5057770;28;20063;-56
2022/10/03 14:18:50;;;;;;;4.93;1.08;;;19.00;99.90;;;;;;5075102;28;20076;-55
2022/10/03 14:21:39;;;;;;;3.90;1.17;;;19.00;99.90;;;;;;5077421;28;20052;-55
2022/10/03 14:24:17;;;;;;;5.93;1.38;;;19.00;99.90;;;;;;5079354;28;20109;-55
2022/10/03 14:26:51;;;;;;;5.53;0.98;;;19.00;99.90;;;;;;5067893;28;20147;-56
2022/10/03 14:29:32;;;;;;;6.00;1.48;;;19.00;99.90;;;;;;5080490;28;20181;-56
2022/10/03 14:32:08;;;;;;;5.07;1.40;;;19.00;99.90;;;;;;5084897;28;20040;-54
2022/10/03 14:34:49;;;;;;;5.50;1.30;;;19.10;99.90;;;;;;5079915;28;20044;-55
2022/10/03 14:37:26;;;;;;;5.80;1.45;;;19.10;99.90;;;;;;5079106;28;20043;-54
2022/10/03 14:39:58;;;;;;;6.20;1.48;;;19.00;99.90;;;;;;5080841;28;20071;-56
2022/10/03 14:42:32;;;;;;;4.40;1.10;;;19.00;99.90;;;;;;5080491;28;20060;-55